Time;durP1;ratioP1;P1;durP2;ratioP2;P2;SDS_P1;SDS_P2;PMS_P1;PMS_P2;Temp;Humidity;BMP_temperature;BMP_pressure;BME280_temperature;BME280_humidity;BME280_pressure;Samples;Min_cycle;Max_cycle;Signal;HPM_P1;HPM_P2
2022/01/14 00:01:37;;;;;;;;;;;;;;;;;;6239946;23;19907;-81
2022/01/14 00:04:03;;;;;;;;;;;;;;;;;;6213503;23;20283;-80
2022/01/14 00:06:29;;;;;;;;;;;;;;;;;;6240579;23;19903;-82
2022/01/14 00:09:04;;;;;;;;;;;;;;;;;;6210642;23;19974;-82
2022/01/14 00:11:31;;;;;;;;;;;;;;;;;;6239336;23;19908;-85
2022/01/14 00:14:42;;;;;;;;;;;;;;;;;;6232852;23;19908;-79
2022/01/14 00:16:47;;;;;;;;;;;;;;;;;;6225121;23;19968;-81
2022/01/14 00:19:13;;;;;;;;;;;;;;;;;;6238887;23;19903;-82
2022/01/14 00:21:41;;;;;;;;;;;;;;;;;;6212534;23;19934;-80
2022/01/14 00:24:31;;;;;;;;;;;;;;;;;;6241331;23;19961;-80
2022/01/14 00:32:43;;;;;;;;;;;;;;;;;;6247824;23;19907;-80
2022/01/14 00:35:09;;;;;;;;;;;;;;;;;;6243444;23;19927;-81
2022/01/14 00:37:35;;;;;;;;;;;;;;;;;;6239255;23;19966;-83
2022/01/14 00:40:01;;;;;;;;;;;;;;;;;;6240821;23;19910;-85
2022/01/14 00:42:28;;;;;;;;;;;;;;;;;;6242304;23;19907;-83
2022/01/14 00:44:54;;;;;;;;;;;;;;;;;;6239515;23;20271;-81
2022/01/14 00:47:20;;;;;;;;;;;;;;;;;;6240193;23;19907;-80
2022/01/14 00:49:46;;;;;;;;;;;;;;;;;;6236968;22;20313;-80
2022/01/14 00:52:12;;;;;;;;;;;;;;;;;;6214350;23;19920;-84
2022/01/14 00:54:39;;;;;;;;;;;;;;;;;;6215863;23;19907;-83
2022/01/14 00:59:34;;;;;;;;;;;;;;;;;;6244363;23;20082;-81
2022/01/14 01:02:01;;;;;;;;;;;;;;;;;;6247231;23;19904;-82
2022/01/14 01:04:33;;;;;;;;;;;;;;;;;;6217034;23;19992;-83
2022/01/14 01:06:59;;;;;;;;;;;;;;;;;;6241997;23;20248;-84
2022/01/14 01:09:26;;;;;;;;;;;;;;;;;;6217681;23;19904;-84
2022/01/14 01:12:46;;;;;;;;;;;;;;;;;;6242435;23;19953;-84
2022/01/14 01:14:49;;;;;;;;;;;;;;;;;;6231055;23;19962;-84
2022/01/14 01:17:15;;;;;;;;;;;;;;;;;;6246225;23;20373;-83
2022/01/14 01:19:41;;;;;;;;;;;;;;;;;;6244221;23;20389;-84
2022/01/14 01:22:07;;;;;;;;;;;;;;;;;;6245415;23;19908;-82
2022/01/14 01:24:34;;;;;;;;;;;;;;;;;;6244874;23;19903;-84
2022/01/14 01:27:06;;;;;;;;;;;;;;;;;;6219564;23;19965;-83
2022/01/14 01:32:02;;;;;;;;;;;;;;;;;;6254451;23;19927;-85
2022/01/14 01:34:28;;;;;;;;;;;;;;;;;;6253285;23;19907;-86
2022/01/14 01:36:54;;;;;;;;;;;;;;;;;;6255022;23;19942;-86
2022/01/14 01:39:20;;;;;;;;;;;;;;;;;;6255804;23;20374;-85
2022/01/14 01:41:47;;;;;;;;;;;;;;;;;;6253342;23;19934;-85
2022/01/14 01:44:13;;;;;;;;;;;;;;;;;;6251219;23;19908;-85
2022/01/14 01:46:43;;;;;;;;;;;;;;;;;;6254833;23;19904;-89
2022/01/14 01:49:09;;;;;;;;;;;;;;;;;;6248005;22;19908;-82
2022/01/14 01:51:35;;;;;;;;;;;;;;;;;;6240554;23;19907;-80
2022/01/14 01:54:01;;;;;;;;;;;;;;;;;;6237550;23;19912;-79
2022/01/14 01:56:27;;;;;;;;;;;;;;;;;;6238891;23;20286;-80
2022/01/14 01:58:56;;;;;;;;;;;;;;;;;;6238599;23;19910;-79
2022/01/14 02:01:22;;;;;;;;;;;;;;;;;;6240714;23;19911;-78
2022/01/14 02:03:48;;;;;;;;;;;;;;;;;;6238951;23;19911;-78
2022/01/14 02:06:14;;;;;;;;;;;;;;;;;;6239372;23;19914;-79
2022/01/14 02:08:41;;;;;;;;;;;;;;;;;;6238720;23;19907;-80
2022/01/14 02:11:07;;;;;;;;;;;;;;;;;;6239524;23;20374;-79
2022/01/14 02:13:33;;;;;;;;;;;;;;;;;;6239523;23;19904;-81
2022/01/14 02:23:50;;;;;;;;;;;;;;;;;;6238480;23;19904;-81
2022/01/14 02:26:17;;;;;;;;;;;;;;;;;;6239487;23;19922;-80
2022/01/14 02:28:43;;;;;;;;;;;;;;;;;;6238550;23;19907;-80
2022/01/14 02:31:09;;;;;;;;;;;;;;;;;;6239640;23;19903;-80
2022/01/14 02:33:35;;;;;;;;;;;;;;;;;;6237958;23;20221;-81
2022/01/14 02:36:02;;;;;;;;;;;;;;;;;;6240009;23;19903;-81
2022/01/14 02:38:28;;;;;;;;;;;;;;;;;;6238047;23;19957;-81
2022/01/14 02:40:54;;;;;;;;;;;;;;;;;;6210935;23;19911;-80
2022/01/14 02:43:21;;;;;;;;;;;;;;;;;;6239832;23;19907;-81
2022/01/14 02:45:52;;;;;;;;;;;;;;;;;;6238183;23;19982;-82
2022/01/14 02:48:18;;;;;;;;;;;;;;;;;;6221331;23;19904;-82
2022/01/14 02:51:29;;;;;;;;;;;;;;;;;;6238010;23;19965;-81
2022/01/14 02:53:44;;;;;;;;;;;;;;;;;;6224694;22;19915;-81
2022/01/14 02:56:10;;;;;;;;;;;;;;;;;;6239284;23;19956;-81
2022/01/14 02:58:36;;;;;;;;;;;;;;;;;;6239957;23;19912;-80
2022/01/14 03:01:02;;;;;;;;;;;;;;;;;;6239799;23;20162;-81
2022/01/14 03:03:31;;;;;;;;;;;;;;;;;;6238009;23;20332;-81
2022/01/14 03:05:58;;;;;;;;;;;;;;;;;;6239285;23;20454;-83
2022/01/14 03:08:24;;;;;;;;;;;;;;;;;;6239774;23;19904;-82
2022/01/14 03:10:50;;;;;;;;;;;;;;;;;;6238964;23;19929;-81
2022/01/14 03:13:16;;;;;;;;;;;;;;;;;;6239536;23;19953;-82
2022/01/14 03:15:43;;;;;;;;;;;;;;;;;;6237249;23;20316;-81
2022/01/14 03:18:10;;;;;;;;;;;;;;;;;;6240395;23;19918;-82
2022/01/14 03:20:52;;;;;;;;;;;;;;;;;;6239546;23;19911;-81
2022/01/14 03:23:19;;;;;;;;;;;;;;;;;;6240690;23;20536;-81
2022/01/14 03:25:48;;;;;;;;;;;;;;;;;;6239116;23;20290;-82
2022/01/14 03:28:21;;;;;;;;;;;;;;;;;;6239526;23;19965;-82
2022/01/14 03:30:47;;;;;;;;;;;;;;;;;;6239017;23;19907;-81
2022/01/14 03:33:13;;;;;;;;;;;;;;;;;;6239948;23;19910;-84
2022/01/14 03:35:39;;;;;;;;;;;;;;;;;;6239732;23;20590;-81
2022/01/14 03:38:06;;;;;;;;;;;;;;;;;;6240076;23;20706;-79
2022/01/14 03:40:32;;;;;;;;;;;;;;;;;;6241313;23;19912;-79
2022/01/14 03:42:58;;;;;;;;;;;;;;;;;;6240523;23;19911;-81
2022/01/14 03:45:24;;;;;;;;;;;;;;;;;;6240849;23;19904;-81
2022/01/14 03:47:51;;;;;;;;;;;;;;;;;;6239916;23;19910;-82
2022/01/14 03:50:17;;;;;;;;;;;;;;;;;;6240072;22;19903;-81
2022/01/14 03:52:43;;;;;;;;;;;;;;;;;;6211658;23;19966;-81
2022/01/14 03:55:09;;;;;;;;;;;;;;;;;;6239212;23;19918;-81
2022/01/14 03:57:35;;;;;;;;;;;;;;;;;;6238902;23;19919;-80
2022/01/14 04:00:02;;;;;;;;;;;;;;;;;;6216521;23;19908;-82
2022/01/14 04:02:28;;;;;;;;;;;;;;;;;;6245790;23;19903;-80
2022/01/14 04:04:54;;;;;;;;;;;;;;;;;;6247923;23;19950;-80
2022/01/14 04:07:20;;;;;;;;;;;;;;;;;;6251488;23;19908;-83
2022/01/14 04:09:46;;;;;;;;;;;;;;;;;;6246823;23;19904;-81
2022/01/14 04:12:19;;;;;;;;;;;;;;;;;;6249510;23;19915;-81
2022/01/14 04:17:12;;;;;;;;;;;;;;;;;;6240809;23;19939;-80
2022/01/14 04:19:40;;;;;;;;;;;;;;;;;;6238014;23;19923;-81
2022/01/14 04:22:06;;;;;;;;;;;;;;;;;;6240665;23;19908;-79
2022/01/14 04:24:32;;;;;;;;;;;;;;;;;;6239636;23;20022;-80
2022/01/14 04:26:58;;;;;;;;;;;;;;;;;;6238672;23;19907;-79
2022/01/14 04:29:24;;;;;;;;;;;;;;;;;;6241605;23;19908;-78
2022/01/14 04:31:51;;;;;;;;;;;;;;;;;;6236167;23;19908;-80
2022/01/14 04:34:17;;;;;;;;;;;;;;;;;;6240850;23;19926;-81
2022/01/14 04:36:43;;;;;;;;;;;;;;;;;;6239214;23;19931;-81
2022/01/14 04:39:09;;;;;;;;;;;;;;;;;;6239634;23;19932;-82
2022/01/14 04:41:35;;;;;;;;;;;;;;;;;;6238209;23;19904;-81
2022/01/14 04:44:02;;;;;;;;;;;;;;;;;;6239432;23;19915;-81
2022/01/14 04:48:56;;;;;;;;;;;;;;;;;;6238597;22;19903;-82
2022/01/14 04:51:22;;;;;;;;;;;;;;;;;;6212841;23;19911;-78
2022/01/14 04:53:48;;;;;;;;;;;;;;;;;;6238431;23;19922;-80
2022/01/14 04:56:14;;;;;;;;;;;;;;;;;;6239030;23;19903;-78
2022/01/14 04:58:41;;;;;;;;;;;;;;;;;;6238327;23;20291;-79
2022/01/14 05:01:07;;;;;;;;;;;;;;;;;;6240343;23;19908;-86
2022/01/14 05:03:33;;;;;;;;;;;;;;;;;;6241566;23;19953;-86
2022/01/14 05:06:01;;;;;;;;;;;;;;;;;;6216953;23;19911;-87
2022/01/14 05:08:36;;;;;;;;;;;;;;;;;;6249809;23;20321;-85
2022/01/14 05:11:20;;;;;;;;;;;;;;;;;;6244448;23;21340;-87
2022/01/14 05:13:46;;;;;;;;;;;;;;;;;;6242603;23;20128;-86
2022/01/14 05:16:12;;;;;;;;;;;;;;;;;;6241217;23;19911;-83
2022/01/14 05:18:39;;;;;;;;;;;;;;;;;;6239611;23;19935;-84
2022/01/14 05:21:05;;;;;;;;;;;;;;;;;;6239731;23;19915;-82
2022/01/14 05:23:31;;;;;;;;;;;;;;;;;;6240153;23;20283;-84
2022/01/14 05:25:57;;;;;;;;;;;;;;;;;;6238862;23;19907;-81
2022/01/14 05:28:23;;;;;;;;;;;;;;;;;;6240461;23;19904;-80
2022/01/14 05:30:50;;;;;;;;;;;;;;;;;;6239445;23;20501;-81
2022/01/14 05:33:16;;;;;;;;;;;;;;;;;;6239597;23;19907;-84
2022/01/14 05:35:43;;;;;;;;;;;;;;;;;;6238779;23;19936;-80
2022/01/14 05:38:09;;;;;;;;;;;;;;;;;;6239093;23;19915;-79
2022/01/14 05:40:35;;;;;;;;;;;;;;;;;;6238776;23;19903;-81
2022/01/14 05:43:01;;;;;;;;;;;;;;;;;;6240024;23;19907;-80
2022/01/14 05:45:28;;;;;;;;;;;;;;;;;;6238360;23;20281;-80
2022/01/14 05:47:54;;;;;;;;;;;;;;;;;;6238895;23;20209;-82
2022/01/14 05:50:20;;;;;;;;;;;;;;;;;;6239467;22;20288;-81
2022/01/14 05:52:46;;;;;;;;;;;;;;;;;;6210595;23;19922;-82
2022/01/14 05:55:41;;;;;;;;;;;;;;;;;;5037451;27;19933;-80
2022/01/14 05:58:07;;;;;;;;;;;;;;;;;;5024257;28;19968;-81
2022/01/14 06:00:33;;;;;;;;;;;;;;;;;;5021425;28;20412;-81
2022/01/14 06:03:00;;;;;;;;;;;;;;;;;;5030481;28;19953;-79
2022/01/14 06:05:26;;;;;;;;;;;;;;;;;;5037331;28;19944;-82
2022/01/14 06:07:52;;;;;;;;;;;;;;;;;;5030045;28;19964;-80
2022/01/14 06:10:22;;;;;;;;;;;;;;;;;;5022244;28;20014;-81
2022/01/14 06:12:49;;;;;;;;;;;;;;;;;;5021305;28;19952;-82
2022/01/14 06:15:15;;;;;;;;;;;;;;;;;;5022127;28;19961;-81
2022/01/14 06:17:41;;;;;;;;;;;;;;;;;;5032007;28;19948;-80
2022/01/14 06:20:07;;;;;;;;;;;;;;;;;;5041951;28;19964;-81
2022/01/14 06:22:33;;;;;;;;;;;;;;;;;;5040326;28;19944;-81
2022/01/14 06:25:00;;;;;;;;;;;;;;;;;;5041830;28;20035;-81
2022/01/14 06:27:27;;;;;;;;;;;;;;;;;;5042321;28;19963;-81
2022/01/14 06:29:53;;;;;;;;;;;;;;;;;;5041632;28;19979;-81
2022/01/14 06:32:19;;;;;;;;;;;;;;;;;;5038405;28;19959;-81
2022/01/14 06:34:45;;;;;;;;;;;;;;;;;;5037509;28;19961;-81
2022/01/14 06:37:11;;;;;;;;;;;;;;;;;;5035261;28;19961;-82
2022/01/14 06:39:37;;;;;;;;;;;;;;;;;;5024968;28;19960;-85
2022/01/14 06:42:04;;;;;;;;;;;;;;;;;;5022037;28;19918;-85
2022/01/14 06:44:30;;;;;;;;;;;;;;;;;;5023898;28;20372;-85
2022/01/14 06:46:56;;;;;;;;;;;;;;;;;;5022235;28;19962;-83
2022/01/14 06:49:22;;;;;;;;;;;;;;;;;;5047050;28;19945;-82
2022/01/14 06:51:48;;;;;;;;;;;;;;;;;;5017165;28;20048;-83
2022/01/14 06:54:15;;;;;;;;;;;;;;;;;;5010718;28;19957;-81
2022/01/14 06:56:41;;;;;;;;;;;;;;;;;;5019520;28;19960;-81
2022/01/14 06:59:09;;;;;;;;;;;;;;;;;;5023510;28;19968;-82
2022/01/14 07:01:35;;;;;;;;;;;;;;;;;;5045174;28;19973;-82
2022/01/14 07:04:01;;;;;;;;;;;;;;;;;;5032207;28;20435;-82
2022/01/14 07:06:27;;;;;;;;;;;;;;;;;;5004911;28;19922;-81
2022/01/14 07:08:53;;;;;;;;;;;;;;;;;;5004153;28;19956;-80
2022/01/14 07:11:25;;;;;;;;;;;;;;;;;;5006598;28;19957;-80
2022/01/14 07:13:51;;;;;;;;;;;;;;;;;;5030944;28;19972;-81
2022/01/14 07:16:17;;;;;;;;;;;;;;;;;;5034972;28;19921;-81
2022/01/14 07:18:47;;;;;;;;;;;;;;;;;;5022948;28;19941;-82
2022/01/14 07:21:14;;;;;;;;;;;;;;;;;;5022919;28;20381;-81
2022/01/14 07:23:40;;;;;;;;;;;;;;;;;;5049247;28;19917;-82
2022/01/14 07:26:06;;;;;;;;;;;;;;;;;;5055271;28;20522;-83
2022/01/14 07:28:32;;;;;;;;;;;;;;;;;;5018992;28;19961;-82
2022/01/14 07:30:58;;;;;;;;;;;;;;;;;;5021576;28;19964;-83
2022/01/14 07:33:24;;;;;;;;;;;;;;;;;;5039332;28;19960;-83
2022/01/14 07:35:51;;;;;;;;;;;;;;;;;;5023022;28;20333;-84
2022/01/14 07:38:17;;;;;;;;;;;;;;;;;;5027951;28;19913;-86
2022/01/14 07:40:43;;;;;;;;;;;;;;;;;;5023438;28;20420;-85
2022/01/14 07:43:09;;;;;;;;;;;;;;;;;;5030718;28;19917;-84
2022/01/14 07:45:35;;;;;;;;;;;;;;;;;;5028553;28;19921;-80
2022/01/14 07:48:02;;;;;;;;;;;;;;;;;;5027842;28;20286;-85
2022/01/14 07:50:28;;;;;;;;;;;;;;;;;;5027066;28;19964;-84
2022/01/14 07:52:54;;;;;;;;;;;;;;;;;;5026121;28;19969;-83
2022/01/14 07:55:20;;;;;;;;;;;;;;;;;;5025952;28;19965;-84
2022/01/14 07:57:47;;;;;;;;;;;;;;;;;;5023015;28;19948;-85
2022/01/14 08:00:13;;;;;;;;;;;;;;;;;;5015675;28;19972;-85
2022/01/14 08:02:40;;;;;;;;;;;;;;;;;;5026340;28;19952;-83
2022/01/14 08:05:06;;;;;;;;;;;;;;;;;;5022989;28;19956;-85
2022/01/14 08:07:34;;;;;;;;;;;;;;;;;;5022432;28;19925;-84
2022/01/14 08:10:00;;;;;;;;;;;;;;;;;;5025515;28;20333;-84
2022/01/14 08:12:26;;;;;;;;;;;;;;;;;;5026270;28;19952;-84
2022/01/14 08:14:53;;;;;;;;;;;;;;;;;;5020571;28;19933;-84
2022/01/14 08:17:20;;;;;;;;;;;;;;;;;;5028078;28;19972;-84
2022/01/14 08:19:47;;;;;;;;;;;;;;;;;;5024983;28;19967;-84
2022/01/14 08:22:13;;;;;;;;;;;;;;;;;;5029527;28;19964;-85
2022/01/14 08:24:39;;;;;;;;;;;;;;;;;;5021745;28;20067;-84
2022/01/14 08:27:08;;;;;;;;;;;;;;;;;;5027602;28;19945;-82
2022/01/14 08:29:34;;;;;;;;;;;;;;;;;;5020092;28;20026;-85
2022/01/14 08:32:00;;;;;;;;;;;;;;;;;;5030081;28;19956;-85
2022/01/14 08:34:27;;;;;;;;;;;;;;;;;;5028259;28;19949;-85
2022/01/14 08:36:53;;;;;;;;;;;;;;;;;;5026973;28;19964;-86
2022/01/14 08:39:19;;;;;;;;;;;;;;;;;;5030692;28;20344;-86
2022/01/14 08:41:46;;;;;;;;;;;;;;;;;;5020435;28;19956;-86
2022/01/14 08:44:14;;;;;;;;;;;;;;;;;;5025711;28;19964;-86
2022/01/14 08:46:40;;;;;;;;;;;;;;;;;;5032768;28;20083;-85
2022/01/14 08:49:08;;;;;;;;;;;;;;;;;;5021998;28;19953;-85
2022/01/14 08:51:37;;;;;;;;;;;;;;;;;;5029177;28;19917;-84
2022/01/14 08:54:03;;;;;;;;;;;;;;;;;;5009557;28;20475;-85
2022/01/14 08:56:30;;;;;;;;;;;;;;;;;;5005580;28;19968;-85
2022/01/14 08:58:56;;;;;;;;;;;;;;;;;;5014654;28;19975;-85
2022/01/14 09:01:22;;;;;;;;;;;;;;;;;;4994810;28;20289;-84
2022/01/14 09:03:48;;;;;;;;;;;;;;;;;;5009151;28;19998;-85
2022/01/14 09:06:14;;;;;;;;;;;;;;;;;;5015187;28;20467;-81
2022/01/14 09:08:40;;;;;;;;;;;;;;;;;;5022146;28;19918;-86
2022/01/14 09:11:07;;;;;;;;;;;;;;;;;;5043172;28;20329;-83
2022/01/14 09:13:33;;;;;;;;;;;;;;;;;;5025447;28;20348;-83
2022/01/14 09:16:00;;;;;;;;;;;;;;;;;;5025498;28;20720;-84
2022/01/14 09:18:26;;;;;;;;;;;;;;;;;;5022898;28;20029;-83
2022/01/14 09:20:52;;;;;;;;;;;;;;;;;;5018855;28;20479;-83
2022/01/14 09:23:23;;;;;;;;;;;;;;;;;;5051374;28;20007;-83
2022/01/14 09:25:50;;;;;;;;;;;;;;;;;;5026997;28;20460;-82
2022/01/14 09:28:16;;;;;;;;;;;;;;;;;;5023296;28;19956;-84
2022/01/14 09:30:42;;;;;;;;;;;;;;;;;;5026383;28;20521;-83
2022/01/14 09:33:08;;;;;;;;;;;;;;;;;;5060125;28;19956;-85
2022/01/14 09:35:34;;;;;;;;;;;;;;;;;;5023853;28;20342;-84
2022/01/14 09:38:01;;;;;;;;;;;;;;;;;;5019430;28;20376;-84
2022/01/14 09:40:28;;;;;;;;;;;;;;;;;;5017085;28;19918;-84
2022/01/14 09:43:00;;;;;;;;;;;;;;;;;;5024431;28;20346;-85
2022/01/14 09:45:26;;;;;;;;;;;;;;;;;;5032334;28;20019;-83
2022/01/14 09:47:52;;;;;;;;;;;;;;;;;;5006654;28;19956;-85
2022/01/14 09:50:18;;;;;;;;;;;;;;;;;;5024876;28;20735;-84
2022/01/14 09:52:47;;;;;;;;;;;;;;;;;;5024090;28;19956;-83
2022/01/14 09:55:13;;;;;;;;;;;;;;;;;;5036649;28;20019;-84
2022/01/14 09:57:39;;;;;;;;;;;;;;;;;;5016828;28;19952;-83
2022/01/14 10:00:05;;;;;;;;;;;;;;;;;;5028322;28;20672;-84
2022/01/14 10:02:32;;;;;;;;;;;;;;;;;;5020662;28;19956;-84
2022/01/14 10:04:58;;;;;;;;;;;;;;;;;;5018717;28;19957;-83
2022/01/14 10:07:24;;;;;;;;;;;;;;;;;;5032802;28;20022;-85
2022/01/14 10:09:57;;;;;;;;;;;;;;;;;;5022273;28;19960;-86
2022/01/14 10:12:23;;;;;;;;;;;;;;;;;;5016076;28;20006;-83
2022/01/14 10:14:49;;;;;;;;;;;;;;;;;;5032179;28;19964;-84
2022/01/14 10:17:15;;;;;;;;;;;;;;;;;;5022173;28;19960;-84
2022/01/14 10:19:42;;;;;;;;;;;;;;;;;;5021693;28;19917;-83
2022/01/14 10:22:08;;;;;;;;;;;;;;;;;;5020575;28;19964;-87
2022/01/14 10:24:34;;;;;;;;;;;;;;;;;;5017575;28;19963;-86
2022/01/14 10:27:00;;;;;;;;;;;;;;;;;;5019553;28;19940;-84
2022/01/14 10:29:27;;;;;;;;;;;;;;;;;;5019241;28;20361;-84
2022/01/14 10:31:53;;;;;;;;;;;;;;;;;;5031770;28;19961;-85
2022/01/14 10:34:19;;;;;;;;;;;;;;;;;;5016838;28;20366;-84
2022/01/14 10:36:45;;;;;;;;;;;;;;;;;;5018845;28;20353;-85
2022/01/14 10:39:11;;;;;;;;;;;;;;;;;;5017949;28;19964;-86
2022/01/14 10:41:37;;;;;;;;;;;;;;;;;;5023024;28;19964;-85
2022/01/14 10:44:04;;;;;;;;;;;;;;;;;;5027008;28;19968;-84
2022/01/14 10:46:30;;;;;;;;;;;;;;;;;;5022337;28;19964;-87
2022/01/14 10:48:56;;;;;;;;;;;;;;;;;;5023050;28;19980;-85
2022/01/14 10:51:22;;;;;;;;;;;;;;;;;;5021901;28;19921;-85
2022/01/14 10:53:49;;;;;;;;;;;;;;;;;;5024646;28;19971;-83
2022/01/14 10:56:15;;;;;;;;;;;;;;;;;;5029900;28;19960;-84
2022/01/14 10:58:41;;;;;;;;;;;;;;;;;;5021137;28;19952;-86
2022/01/14 11:01:07;;;;;;;;;;;;;;;;;;5022472;28;19952;-86
2022/01/14 11:03:34;;;;;;;;;;;;;;;;;;5028190;28;19952;-83
2022/01/14 11:06:00;;;;;;;;;;;;;;;;;;5023157;28;19937;-86
2022/01/14 11:08:26;;;;;;;;;;;;;;;;;;5021312;28;19956;-85
2022/01/14 11:10:52;;;;;;;;;;;;;;;;;;5024487;28;19921;-84
2022/01/14 11:13:18;;;;;;;;;;;;;;;;;;5034251;28;20292;-84
2022/01/14 11:15:45;;;;;;;;;;;;;;;;;;5037339;28;19929;-92
2022/01/14 11:18:12;;;;;;;;;;;;;;;;;;5058895;28;20011;-89
2022/01/14 11:23:14;;;;;;;;;;;;;;;;;;5044975;28;19920;-89
2022/01/14 11:23:24;;;;;;;;;;;;;;;;;;5039401;28;19960;-90
2022/01/14 11:25:51;;;;;;;;;;;;;;;;;;5042260;28;19913;-89
2022/01/14 11:28:18;;;;;;;;;;;;;;;;;;5038921;28;19917;-88
2022/01/14 11:30:44;;;;;;;;;;;;;;;;;;5032863;28;20265;-88
2022/01/14 11:33:11;;;;;;;;;;;;;;;;;;5026919;28;20278;-91
2022/01/14 11:35:37;;;;;;;;;;;;;;;;;;5007093;28;20560;-84
2022/01/14 11:38:03;;;;;;;;;;;;;;;;;;5015126;28;19913;-91
2022/01/14 11:40:32;;;;;;;;;;;;;;;;;;5057381;28;19940;-89
2022/01/14 11:42:59;;;;;;;;;;;;;;;;;;5033720;28;19914;-90
2022/01/14 11:45:26;;;;;;;;;;;;;;;;;;5030416;28;19921;-91
2022/01/14 11:47:58;;;;;;;;;;;;;;;;;;5029810;28;19967;-90
2022/01/14 11:50:24;;;;;;;;;;;;;;;;;;5068264;28;19917;-89
2022/01/14 11:52:51;;;;;;;;;;;;;;;;;;5035682;28;19917;-86
2022/01/14 11:55:18;;;;;;;;;;;;;;;;;;5027226;28;19933;-86
2022/01/14 11:57:45;;;;;;;;;;;;;;;;;;5024954;28;19983;-85
2022/01/14 12:00:11;;;;;;;;;;;;;;;;;;5030736;28;19979;-87
2022/01/14 12:02:37;;;;;;;;;;;;;;;;;;5025182;28;20003;-87
2022/01/14 12:05:04;;;;;;;;;;;;;;;;;;5027784;28;20024;-86
2022/01/14 12:07:30;;;;;;;;;;;;;;;;;;5023535;28;20010;-87
2022/01/14 12:09:56;;;;;;;;;;;;;;;;;;5025622;28;21504;-89
2022/01/14 12:12:23;;;;;;;;;;;;;;;;;;5023495;28;19972;-89
2022/01/14 12:14:57;;;;;;;;;;;;;;;;;;5024661;28;20393;-89
2022/01/14 12:17:23;;;;;;;;;;;;;;;;;;5021324;28;19922;-85
2022/01/14 12:19:49;;;;;;;;;;;;;;;;;;5021923;28;20530;-87
2022/01/14 12:22:15;;;;;;;;;;;;;;;;;;5025489;28;19945;-87
2022/01/14 12:24:43;;;;;;;;;;;;;;;;;;5041064;28;19925;-86
2022/01/14 12:27:11;;;;;;;;;;;;;;;;;;5034550;28;19940;-89
2022/01/14 12:29:37;;;;;;;;;;;;;;;;;;5063520;28;19967;-82
2022/01/14 12:32:03;;;;;;;;;;;;;;;;;;5032915;28;19965;-89
2022/01/14 12:34:29;;;;;;;;;;;;;;;;;;5033962;28;19928;-89
2022/01/14 12:36:55;;;;;;;;;;;;;;;;;;5030373;28;19991;-90
2022/01/14 12:39:22;;;;;;;;;;;;;;;;;;5028411;28;19925;-88
2022/01/14 12:41:48;;;;;;;;;;;;;;;;;;5056746;28;19986;-88
2022/01/14 12:44:14;;;;;;;;;;;;;;;;;;5029729;28;19920;-89
2022/01/14 12:47:20;;;;;;;;;;;;;;;;;;5027593;28;19925;-90
2022/01/14 12:49:33;;;;;;;;;;;;;;;;;;5028226;28;19975;-89
2022/01/14 12:51:59;;;;;;;;;;;;;;;;;;5028574;28;19917;-89
2022/01/14 12:54:25;;;;;;;;;;;;;;;;;;5030763;28;19925;-89
2022/01/14 12:56:53;;;;;;;;;;;;;;;;;;5026306;28;19973;-91
2022/01/14 12:59:20;;;;;;;;;;;;;;;;;;5021351;28;19913;-89
2022/01/14 13:01:46;;;;;;;;;;;;;;;;;;5019848;28;19921;-88
2022/01/14 13:04:12;;;;;;;;;;;;;;;;;;5025598;28;19925;-88
2022/01/14 13:06:38;;;;;;;;;;;;;;;;;;5023454;28;19975;-85
2022/01/14 13:09:04;;;;;;;;;;;;;;;;;;5021433;28;19917;-90
2022/01/14 13:11:31;;;;;;;;;;;;;;;;;;5024431;28;19917;-89
2022/01/14 13:13:57;;;;;;;;;;;;;;;;;;5003438;28;24953;-88
2022/01/14 13:16:23;;;;;;;;;;;;;;;;;;5008790;28;19983;-89
2022/01/14 13:18:49;;;;;;;;;;;;;;;;;;5013790;28;19928;-89
2022/01/14 13:21:16;;;;;;;;;;;;;;;;;;5023518;28;19914;-88
2022/01/14 13:23:42;;;;;;;;;;;;;;;;;;5008670;28;20297;-90
2022/01/14 13:26:08;;;;;;;;;;;;;;;;;;5012284;28;19932;-88
2022/01/14 13:28:34;;;;;;;;;;;;;;;;;;5002324;28;19961;-87
2022/01/14 13:31:00;;;;;;;;;;;;;;;;;;5013782;28;20454;-86
2022/01/14 13:33:26;;;;;;;;;;;;;;;;;;5005231;28;19957;-88
2022/01/14 13:35:53;;;;;;;;;;;;;;;;;;5006796;28;20450;-89
2022/01/14 13:38:19;;;;;;;;;;;;;;;;;;5008928;28;20170;-89
2022/01/14 13:40:45;;;;;;;;;;;;;;;;;;5027716;28;20301;-90
2022/01/14 13:43:13;;;;;;;;;;;;;;;;;;5028274;28;19967;-89
2022/01/14 13:45:44;;;;;;;;;;;;;;;;;;5029823;28;19968;-88
2022/01/14 13:48:10;;;;;;;;;;;;;;;;;;5026331;28;19953;-87
2022/01/14 13:50:37;;;;;;;;;;;;;;;;;;5058166;28;19914;-87
2022/01/14 13:53:03;;;;;;;;;;;;;;;;;;5024664;28;23333;-86
2022/01/14 13:55:29;;;;;;;;;;;;;;;;;;5025193;28;19961;-86
2022/01/14 13:57:55;;;;;;;;;;;;;;;;;;5040988;28;19921;-87
2022/01/14 14:00:22;;;;;;;;;;;;;;;;;;5057806;28;19953;-89
2022/01/14 14:02:48;;;;;;;;;;;;;;;;;;5026951;28;20305;-87
2022/01/14 14:05:14;;;;;;;;;;;;;;;;;;5027395;28;19921;-86
2022/01/14 14:07:41;;;;;;;;;;;;;;;;;;5039707;28;19921;-87
2022/01/14 14:10:19;;;;;;;;;;;;;;;;;;5032495;28;19921;-88
2022/01/14 14:12:56;;;;;;;;;;;;;;;;;;5027656;28;19928;-89
2022/01/14 14:15:44;;;;;;;;;;;;;;;;;;5025876;28;20359;-89
2022/01/14 14:18:10;;;;;;;;;;;;;;;;;;5033401;28;19917;-89
2022/01/14 14:20:36;;;;;;;;;;;;;;;;;;5029859;28;19935;-89
2022/01/14 14:23:03;;;;;;;;;;;;;;;;;;5033777;28;21541;-91
2022/01/14 14:25:32;;;;;;;;;;;;;;;;;;5030850;28;19925;-90
2022/01/14 14:27:58;;;;;;;;;;;;;;;;;;5030970;28;19925;-90
2022/01/14 14:30:26;;;;;;;;;;;;;;;;;;5046109;28;19926;-88
2022/01/14 14:32:53;;;;;;;;;;;;;;;;;;5028605;28;20324;-87
2022/01/14 14:35:19;;;;;;;;;;;;;;;;;;5039597;28;19956;-90
2022/01/14 14:37:47;;;;;;;;;;;;;;;;;;5032645;28;19963;-89
2022/01/14 14:40:17;;;;;;;;;;;;;;;;;;5034352;28;19944;-88
2022/01/14 14:42:43;;;;;;;;;;;;;;;;;;5036571;28;21244;-85
2022/01/14 14:45:09;;;;;;;;;;;;;;;;;;5048493;28;19924;-87
2022/01/14 14:47:36;;;;;;;;;;;;;;;;;;5036399;28;19921;-85
2022/01/14 14:50:02;;;;;;;;;;;;;;;;;;5030049;28;19921;-89
2022/01/14 14:52:28;;;;;;;;;;;;;;;;;;5037450;28;20373;-87
2022/01/14 14:54:54;;;;;;;;;;;;;;;;;;5030752;28;19933;-82
2022/01/14 14:57:21;;;;;;;;;;;;;;;;;;5045214;28;19925;-85
2022/01/14 14:59:47;;;;;;;;;;;;;;;;;;5006321;28;19917;-88
2022/01/14 15:02:14;;;;;;;;;;;;;;;;;;5007296;28;19926;-88
2022/01/14 15:04:41;;;;;;;;;;;;;;;;;;5009614;28;19924;-88
2022/01/14 15:07:07;;;;;;;;;;;;;;;;;;5004841;28;19917;-87
2022/01/14 15:09:33;;;;;;;;;;;;;;;;;;5016633;28;19921;-86
2022/01/14 15:11:59;;;;;;;;;;;;;;;;;;5004370;28;19953;-86
2022/01/14 15:14:26;;;;;;;;;;;;;;;;;;5047466;28;19956;-84
2022/01/14 15:19:31;;;;;;;;;;;;;;;;;;5022547;28;19948;-84
2022/01/14 15:21:57;;;;;;;;;;;;;;;;;;5023637;28;19952;-85
2022/01/14 15:24:23;;;;;;;;;;;;;;;;;;5022387;28;20015;-85
2022/01/14 15:26:49;;;;;;;;;;;;;;;;;;5023779;28;20468;-83
2022/01/14 15:29:15;;;;;;;;;;;;;;;;;;5025997;28;19956;-84
2022/01/14 15:31:42;;;;;;;;;;;;;;;;;;5029468;28;19956;-79
2022/01/14 15:34:08;;;;;;;;;;;;;;;;;;5022959;28;20431;-79
2022/01/14 15:36:34;;;;;;;;;;;;;;;;;;5059213;28;20014;-79
2022/01/14 15:39:00;;;;;;;;;;;;;;;;;;5021871;28;20317;-79
2022/01/14 15:41:29;;;;;;;;;;;;;;;;;;5028031;28;19952;-80
2022/01/14 15:44:00;;;;;;;;;;;;;;;;;;5026781;28;19918;-80
2022/01/14 15:46:26;;;;;;;;;;;;;;;;;;5025180;28;20014;-81
2022/01/14 15:48:54;;;;;;;;;;;;;;;;;;5026530;28;19956;-78
2022/01/14 15:51:24;;;;;;;;;;;;;;;;;;5011355;28;19999;-79
2022/01/14 15:53:50;;;;;;;;;;;;;;;;;;5006533;28;19983;-79
2022/01/14 15:56:16;;;;;;;;;;;;;;;;;;5006788;28;19969;-78
2022/01/14 15:58:43;;;;;;;;;;;;;;;;;;5004215;28;20346;-80
2022/01/14 16:01:09;;;;;;;;;;;;;;;;;;5005906;28;20318;-79
2022/01/14 16:03:37;;;;;;;;;;;;;;;;;;5022221;28;19952;-79
2022/01/14 16:06:03;;;;;;;;;;;;;;;;;;5023943;28;19975;-79
2022/01/14 16:08:30;;;;;;;;;;;;;;;;;;5027606;28;20384;-78
2022/01/14 16:10:56;;;;;;;;;;;;;;;;;;5024253;28;19952;-78
2022/01/14 16:13:23;;;;;;;;;;;;;;;;;;5024865;28;19965;-79
2022/01/14 16:15:49;;;;;;;;;;;;;;;;;;5023739;28;19973;-78
2022/01/14 16:18:15;;;;;;;;;;;;;;;;;;5024660;28;19963;-79
2022/01/14 16:20:41;;;;;;;;;;;;;;;;;;5025668;28;20348;-78
2022/01/14 16:23:07;;;;;;;;;;;;;;;;;;5025384;28;19961;-79
2022/01/14 16:25:33;;;;;;;;;;;;;;;;;;5024762;28;20480;-78
2022/01/14 16:28:00;;;;;;;;;;;;;;;;;;5026138;28;19949;-80
2022/01/14 16:30:26;;;;;;;;;;;;;;;;;;5025967;28;19965;-79
2022/01/14 16:32:52;;;;;;;;;;;;;;;;;;5025717;28;19949;-79
2022/01/14 16:35:18;;;;;;;;;;;;;;;;;;5020772;28;19997;-80
2022/01/14 16:37:47;;;;;;;;;;;;;;;;;;5038687;28;19952;-79
2022/01/14 16:40:13;;;;;;;;;;;;;;;;;;5025455;28;19917;-81
2022/01/14 16:42:40;;;;;;;;;;;;;;;;;;5027995;28;19960;-81
2022/01/14 16:45:06;;;;;;;;;;;;;;;;;;5023364;28;19953;-80
2022/01/14 16:47:33;;;;;;;;;;;;;;;;;;5026707;28;19959;-80
2022/01/14 16:50:01;;;;;;;;;;;;;;;;;;5037918;28;20318;-80
2022/01/14 16:52:28;;;;;;;;;;;;;;;;;;5025384;28;19921;-79
2022/01/14 16:54:54;;;;;;;;;;;;;;;;;;5026024;28;19964;-80
2022/01/14 16:57:20;;;;;;;;;;;;;;;;;;5026747;28;20369;-81
2022/01/14 16:59:49;;;;;;;;;;;;;;;;;;5026446;28;19964;-80
2022/01/14 17:02:15;;;;;;;;;;;;;;;;;;5021894;28;20022;-82
2022/01/14 17:04:41;;;;;;;;;;;;;;;;;;5015947;28;20022;-82
2022/01/14 17:07:09;;;;;;;;;;;;;;;;;;5021605;28;20058;-82
2022/01/14 17:09:35;;;;;;;;;;;;;;;;;;5020179;28;19944;-80
2022/01/14 17:12:01;;;;;;;;;;;;;;;;;;5019503;28;20068;-81